sensor_id;sensor_type;location;lat;lon;timestamp;P1;P2;P0
45990;PMS5003;31721;41.740;-88.000;2023-01-19T00:02:12;15;15;
45990;PMS5003;31721;41.740;-88.000;2023-01-19T00:04:40;8;8;
45990;PMS5003;31721;41.740;-88.000;2023-01-19T00:07:07;20;15;
45990;PMS5003;31721;41.740;-88.000;2023-01-19T00:09:35;12;11;
45990;PMS5003;31721;41.740;-88.000;2023-01-19T00:12:03;10;7;
45990;PMS5003;31721;41.740;-88.000;2023-01-19T00:14:32;8;6;
45990;PMS5003;31721;41.740;-88.000;2023-01-19T00:16:59;11;10;
45990;PMS5003;31721;41.740;-88.000;2023-01-19T00:19:28;14;12;
45990;PMS5003;31721;41.740;-88.000;2023-01-19T00:21:56;17;14;
45990;PMS5003;31721;41.740;-88.000;2023-01-19T00:24:24;14;10;
45990;PMS5003;31721;41.740;-88.000;2023-01-19T00:26:52;14;11;
45990;PMS5003;31721;41.740;-88.000;2023-01-19T00:29:20;15;14;
45990;PMS5003;31721;41.740;-88.000;2023-01-19T00:31:48;7;7;
45990;PMS5003;31721;41.740;-88.000;2023-01-19T00:34:16;6;6;
45990;PMS5003;31721;41.740;-88.000;2023-01-19T00:36:44;10;10;
45990;PMS5003;31721;41.740;-88.000;2023-01-19T00:39:12;11;10;
45990;PMS5003;31721;41.740;-88.000;2023-01-19T00:41:39;11;10;
45990;PMS5003;31721;41.740;-88.000;2023-01-19T00:44:07;15;10;
45990;PMS5003;31721;41.740;-88.000;2023-01-19T00:46:35;7;6;
45990;PMS5003;31721;41.740;-88.000;2023-01-19T00:49:03;10;8;
45990;PMS5003;31721;41.740;-88.000;2023-01-19T00:51:32;10;10;
45990;PMS5003;31721;41.740;-88.000;2023-01-19T00:53:59;12;7;
45990;PMS5003;31721;41.740;-88.000;2023-01-19T00:56:27;14;11;
45990;PMS5003;31721;41.740;-88.000;2023-01-19T00:58:55;11;8;
45990;PMS5003;31721;41.740;-88.000;2023-01-19T01:01:23;10;8;
45990;PMS5003;31721;41.740;-88.000;2023-01-19T01:03:51;8;8;
45990;PMS5003;31721;41.740;-88.000;2023-01-19T01:06:18;7;7;
45990;PMS5003;31721;41.740;-88.000;2023-01-19T01:08:46;10;10;
45990;PMS5003;31721;41.740;-88.000;2023-01-19T01:11:14;8;8;
45990;PMS5003;31721;41.740;-88.000;2023-01-19T01:13:42;8;7;
45990;PMS5003;31721;41.740;-88.000;2023-01-19T01:16:10;13;12;
45990;PMS5003;31721;41.740;-88.000;2023-01-19T01:18:40;16;10;
45990;PMS5003;31721;41.740;-88.000;2023-01-19T01:21:08;11;11;
45990;PMS5003;31721;41.740;-88.000;2023-01-19T01:23:37;12;8;
45990;PMS5003;31721;41.740;-88.000;2023-01-19T01:26:05;10;10;
45990;PMS5003;31721;41.740;-88.000;2023-01-19T01:28:33;10;10;
45990;PMS5003;31721;41.740;-88.000;2023-01-19T01:31:01;8;8;
45990;PMS5003;31721;41.740;-88.000;2023-01-19T01:33:29;8;8;
45990;PMS5003;31721;41.740;-88.000;2023-01-19T01:35:57;16;15;
45990;PMS5003;31721;41.740;-88.000;2023-01-19T01:38:25;14;10;
45990;PMS5003;31721;41.740;-88.000;2023-01-19T01:40:53;10;7;
45990;PMS5003;31721;41.740;-88.000;2023-01-19T01:43:22;8;8;
45990;PMS5003;31721;41.740;-88.000;2023-01-19T01:45:50;11;8;
45990;PMS5003;31721;41.740;-88.000;2023-01-19T01:48:19;11;11;
45990;PMS5003;31721;41.740;-88.000;2023-01-19T01:50:52;14;12;
45990;PMS5003;31721;41.740;-88.000;2023-01-19T01:53:24;8;8;
45990;PMS5003;31721;41.740;-88.000;2023-01-19T01:55:55;7;6;
45990;PMS5003;31721;41.740;-88.000;2023-01-19T01:58:23;12;12;
45990;PMS5003;31721;41.740;-88.000;2023-01-19T02:00:52;8;7;
45990;PMS5003;31721;41.740;-88.000;2023-01-19T02:03:20;19;14;
45990;PMS5003;31721;41.740;-88.000;2023-01-19T02:05:50;7;7;
45990;PMS5003;31721;41.740;-88.000;2023-01-19T02:08:20;11;8;
45990;PMS5003;31721;41.740;-88.000;2023-01-19T02:10:54;15;10;
45990;PMS5003;31721;41.740;-88.000;2023-01-19T02:13:24;11;8;
45990;PMS5003;31721;41.740;-88.000;2023-01-19T02:15:53;7;7;
45990;PMS5003;31721;41.740;-88.000;2023-01-19T02:18:22;8;7;
45990;PMS5003;31721;41.740;-88.000;2023-01-19T02:20:54;7;7;
45990;PMS5003;31721;41.740;-88.000;2023-01-19T02:23:29;10;7;
45990;PMS5003;31721;41.740;-88.000;2023-01-19T02:26:04;8;8;
45990;PMS5003;31721;41.740;-88.000;2023-01-19T02:28:33;8;7;
45990;PMS5003;31721;41.740;-88.000;2023-01-19T02:33:58;8;8;
45990;PMS5003;31721;41.740;-88.000;2023-01-19T02:36:28;6;5;
45990;PMS5003;31721;41.740;-88.000;2023-01-19T02:39:01;7;7;
45990;PMS5003;31721;41.740;-88.000;2023-01-19T02:41:32;6;6;
45990;PMS5003;31721;41.740;-88.000;2023-01-19T02:44:05;11;8;
45990;PMS5003;31721;41.740;-88.000;2023-01-19T02:46:33;10;7;
45990;PMS5003;31721;41.740;-88.000;2023-01-19T02:49:02;8;6;
45990;PMS5003;31721;41.740;-88.000;2023-01-19T02:51:30;7;7;
45990;PMS5003;31721;41.740;-88.000;2023-01-19T02:54:17;7;6;
45990;PMS5003;31721;41.740;-88.000;2023-01-19T02:56:56;8;6;
45990;PMS5003;31721;41.740;-88.000;2023-01-19T02:59:38;10;9;
45990;PMS5003;31721;41.740;-88.000;2023-01-19T03:02:20;12;10;
45990;PMS5003;31721;41.740;-88.000;2023-01-19T03:04:58;8;7;
45990;PMS5003;31721;41.740;-88.000;2023-01-19T03:07:38;15;14;
45990;PMS5003;31721;41.740;-88.000;2023-01-19T03:10:14;12;10;
45990;PMS5003;31721;41.740;-88.000;2023-01-19T03:12:47;11;11;
45990;PMS5003;31721;41.740;-88.000;2023-01-19T03:15:24;18;16;
45990;PMS5003;31721;41.740;-88.000;2023-01-19T03:17:58;20;18;
45990;PMS5003;31721;41.740;-88.000;2023-01-19T03:20:28;15;14;
45990;PMS5003;31721;41.740;-88.000;2023-01-19T03:22:59;16;15;
45990;PMS5003;31721;41.740;-88.000;2023-01-19T03:25:30;17;17;
45990;PMS5003;31721;41.740;-88.000;2023-01-19T03:28:03;23;18;
45990;PMS5003;31721;41.740;-88.000;2023-01-19T03:30:32;18;14;
45990;PMS5003;31721;41.740;-88.000;2023-01-19T03:33:05;27;23;
45990;PMS5003;31721;41.740;-88.000;2023-01-19T03:35:40;15;14;
45990;PMS5003;31721;41.740;-88.000;2023-01-19T03:38:15;19;17;
45990;PMS5003;31721;41.740;-88.000;2023-01-19T03:40:48;17;12;
45990;PMS5003;31721;41.740;-88.000;2023-01-19T03:43:18;21;17;
45990;PMS5003;31721;41.740;-88.000;2023-01-19T03:45:49;20;16;
45990;PMS5003;31721;41.740;-88.000;2023-01-19T03:48:19;24;17;
45990;PMS5003;31721;41.740;-88.000;2023-01-19T03:50:47;15;14;
45990;PMS5003;31721;41.740;-88.000;2023-01-19T03:53:18;12;12;
45990;PMS5003;31721;41.740;-88.000;2023-01-19T03:55:47;23;20;
45990;PMS5003;31721;41.740;-88.000;2023-01-19T03:58:17;19;12;
45990;PMS5003;31721;41.740;-88.000;2023-01-19T04:00:45;19;15;
45990;PMS5003;31721;41.740;-88.000;2023-01-19T04:03:14;16;14;
45990;PMS5003;31721;41.740;-88.000;2023-01-19T04:05:43;20;14;
45990;PMS5003;31721;41.740;-88.000;2023-01-19T04:08:11;28;20;
45990;PMS5003;31721;41.740;-88.000;2023-01-19T04:10:39;19;15;
45990;PMS5003;31721;41.740;-88.000;2023-01-19T04:13:07;18;15;
45990;PMS5003;31721;41.740;-88.000;2023-01-19T04:15:35;19;19;
45990;PMS5003;31721;41.740;-88.000;2023-01-19T04:18:03;21;15;
45990;PMS5003;31721;41.740;-88.000;2023-01-19T04:20:32;15;15;
45990;PMS5003;31721;41.740;-88.000;2023-01-19T04:23:00;21;19;
45990;PMS5003;31721;41.740;-88.000;2023-01-19T04:25:28;22;22;
45990;PMS5003;31721;41.740;-88.000;2023-01-19T04:27:56;18;18;
45990;PMS5003;31721;41.740;-88.000;2023-01-19T04:30:24;23;18;
45990;PMS5003;31721;41.740;-88.000;2023-01-19T04:32:52;20;15;
45990;PMS5003;31721;41.740;-88.000;2023-01-19T04:35:20;31;23;
45990;PMS5003;31721;41.740;-88.000;2023-01-19T04:37:48;20;15;
45990;PMS5003;31721;41.740;-88.000;2023-01-19T04:40:15;29;25;
45990;PMS5003;31721;41.740;-88.000;2023-01-19T04:42:44;25;22;
45990;PMS5003;31721;41.740;-88.000;2023-01-19T04:45:12;20;19;
45990;PMS5003;31721;41.740;-88.000;2023-01-19T04:47:41;19;16;
45990;PMS5003;31721;41.740;-88.000;2023-01-19T04:50:10;20;19;
45990;PMS5003;31721;41.740;-88.000;2023-01-19T04:52:38;23;22;
45990;PMS5003;31721;41.740;-88.000;2023-01-19T04:55:07;23;19;
45990;PMS5003;31721;41.740;-88.000;2023-01-19T04:57:35;19;15;
45990;PMS5003;31721;41.740;-88.000;2023-01-19T05:00:04;28;25;
45990;PMS5003;31721;41.740;-88.000;2023-01-19T05:02:33;19;16;
45990;PMS5003;31721;41.740;-88.000;2023-01-19T05:05:01;23;23;
45990;PMS5003;31721;41.740;-88.000;2023-01-19T05:07:29;24;24;
45990;PMS5003;31721;41.740;-88.000;2023-01-19T05:09:56;24;20;
45990;PMS5003;31721;41.740;-88.000;2023-01-19T05:12:24;15;15;
45990;PMS5003;31721;41.740;-88.000;2023-01-19T05:14:52;30;25;
45990;PMS5003;31721;41.740;-88.000;2023-01-19T05:17:20;21;18;
45990;PMS5003;31721;41.740;-88.000;2023-01-19T05:19:48;25;21;
45990;PMS5003;31721;41.740;-88.000;2023-01-19T05:22:16;20;17;
45990;PMS5003;31721;41.740;-88.000;2023-01-19T05:24:43;30;25;
45990;PMS5003;31721;41.740;-88.000;2023-01-19T05:27:11;16;16;
45990;PMS5003;31721;41.740;-88.000;2023-01-19T05:29:39;23;17;
45990;PMS5003;31721;41.740;-88.000;2023-01-19T05:32:07;17;15;
45990;PMS5003;31721;41.740;-88.000;2023-01-19T05:34:35;27;23;
45990;PMS5003;31721;41.740;-88.000;2023-01-19T05:37:03;28;20;
45990;PMS5003;31721;41.740;-88.000;2023-01-19T05:39:31;24;23;
45990;PMS5003;31721;41.740;-88.000;2023-01-19T05:41:59;19;16;
45990;PMS5003;31721;41.740;-88.000;2023-01-19T05:44:26;21;19;
45990;PMS5003;31721;41.740;-88.000;2023-01-19T05:46:54;25;21;
45990;PMS5003;31721;41.740;-88.000;2023-01-19T05:49:22;26;24;
45990;PMS5003;31721;41.740;-88.000;2023-01-19T05:51:50;20;19;
45990;PMS5003;31721;41.740;-88.000;2023-01-19T05:54:17;14;14;
45990;PMS5003;31721;41.740;-88.000;2023-01-19T05:56:45;25;17;
45990;PMS5003;31721;41.740;-88.000;2023-01-19T05:59:13;16;15;
45990;PMS5003;31721;41.740;-88.000;2023-01-19T06:01:41;19;14;
45990;PMS5003;31721;41.740;-88.000;2023-01-19T06:04:08;21;20;
45990;PMS5003;31721;41.740;-88.000;2023-01-19T06:06:36;14;14;
45990;PMS5003;31721;41.740;-88.000;2023-01-19T06:09:04;30;25;
45990;PMS5003;31721;41.740;-88.000;2023-01-19T06:11:32;20;17;
45990;PMS5003;31721;41.740;-88.000;2023-01-19T06:14:00;12;12;
45990;PMS5003;31721;41.740;-88.000;2023-01-19T06:16:28;15;12;
45990;PMS5003;31721;41.740;-88.000;2023-01-19T06:18:56;17;16;
45990;PMS5003;31721;41.740;-88.000;2023-01-19T06:21:24;17;17;
45990;PMS5003;31721;41.740;-88.000;2023-01-19T06:23:52;21;20;
45990;PMS5003;31721;41.740;-88.000;2023-01-19T06:26:19;16;15;
45990;PMS5003;31721;41.740;-88.000;2023-01-19T06:28:46;11;8;
45990;PMS5003;31721;41.740;-88.000;2023-01-19T06:31:16;13;13;
45990;PMS5003;31721;41.740;-88.000;2023-01-19T06:33:44;20;19;
45990;PMS5003;31721;41.740;-88.000;2023-01-19T06:36:11;19;16;
45990;PMS5003;31721;41.740;-88.000;2023-01-19T06:38:39;16;16;
45990;PMS5003;31721;41.740;-88.000;2023-01-19T06:41:07;14;14;
45990;PMS5003;31721;41.740;-88.000;2023-01-19T06:43:35;13;13;
45990;PMS5003;31721;41.740;-88.000;2023-01-19T06:46:02;13;11;
45990;PMS5003;31721;41.740;-88.000;2023-01-19T06:48:30;17;15;
45990;PMS5003;31721;41.740;-88.000;2023-01-19T06:50:58;19;12;
45990;PMS5003;31721;41.740;-88.000;2023-01-19T06:53:26;19;15;
45990;PMS5003;31721;41.740;-88.000;2023-01-19T06:55:57;13;12;
45990;PMS5003;31721;41.740;-88.000;2023-01-19T06:58:25;17;13;
45990;PMS5003;31721;41.740;-88.000;2023-01-19T07:00:53;16;15;
45990;PMS5003;31721;41.740;-88.000;2023-01-19T07:03:21;13;12;
45990;PMS5003;31721;41.740;-88.000;2023-01-19T07:05:50;13;13;
45990;PMS5003;31721;41.740;-88.000;2023-01-19T07:08:19;17;15;
45990;PMS5003;31721;41.740;-88.000;2023-01-19T07:10:47;20;17;
45990;PMS5003;31721;41.740;-88.000;2023-01-19T07:13:15;17;13;
45990;PMS5003;31721;41.740;-88.000;2023-01-19T07:15:43;16;16;
45990;PMS5003;31721;41.740;-88.000;2023-01-19T07:18:10;21;17;
45990;PMS5003;31721;41.740;-88.000;2023-01-19T07:20:38;16;15;
45990;PMS5003;31721;41.740;-88.000;2023-01-19T07:23:06;15;13;
45990;PMS5003;31721;41.740;-88.000;2023-01-19T07:25:33;13;12;
45990;PMS5003;31721;41.740;-88.000;2023-01-19T07:28:01;11;11;
45990;PMS5003;31721;41.740;-88.000;2023-01-19T07:30:29;16;16;
45990;PMS5003;31721;41.740;-88.000;2023-01-19T07:32:57;16;13;
45990;PMS5003;31721;41.740;-88.000;2023-01-19T07:35:24;10;10;
45990;PMS5003;31721;41.740;-88.000;2023-01-19T07:37:52;8;8;
45990;PMS5003;31721;41.740;-88.000;2023-01-19T07:40:20;12;11;
45990;PMS5003;31721;41.740;-88.000;2023-01-19T07:42:48;10;10;
45990;PMS5003;31721;41.740;-88.000;2023-01-19T07:45:16;8;7;
45990;PMS5003;31721;41.740;-88.000;2023-01-19T07:47:46;13;13;
45990;PMS5003;31721;41.740;-88.000;2023-01-19T07:50:15;10;8;
45990;PMS5003;31721;41.740;-88.000;2023-01-19T07:52:43;8;8;
45990;PMS5003;31721;41.740;-88.000;2023-01-19T07:55:11;7;6;
45990;PMS5003;31721;41.740;-88.000;2023-01-19T07:57:38;11;7;
45990;PMS5003;31721;41.740;-88.000;2023-01-19T08:00:07;7;6;
45990;PMS5003;31721;41.740;-88.000;2023-01-19T08:02:35;13;12;
45990;PMS5003;31721;41.740;-88.000;2023-01-19T08:05:03;10;10;
45990;PMS5003;31721;41.740;-88.000;2023-01-19T08:07:31;11;8;
45990;PMS5003;31721;41.740;-88.000;2023-01-19T08:10:00;6;6;
45990;PMS5003;31721;41.740;-88.000;2023-01-19T08:12:27;7;6;
45990;PMS5003;31721;41.740;-88.000;2023-01-19T08:14:55;4;4;
45990;PMS5003;31721;41.740;-88.000;2023-01-19T08:17:22;12;8;
45990;PMS5003;31721;41.740;-88.000;2023-01-19T08:19:49;7;7;
45990;PMS5003;31721;41.740;-88.000;2023-01-19T08:22:17;6;6;
45990;PMS5003;31721;41.740;-88.000;2023-01-19T08:24:45;16;12;
45990;PMS5003;31721;41.740;-88.000;2023-01-19T08:27:13;3;3;
45990;PMS5003;31721;41.740;-88.000;2023-01-19T08:29:41;6;4;
45990;PMS5003;31721;41.740;-88.000;2023-01-19T08:32:09;9;7;
45990;PMS5003;31721;41.740;-88.000;2023-01-19T08:34:37;7;7;
45990;PMS5003;31721;41.740;-88.000;2023-01-19T08:37:04;6;6;
45990;PMS5003;31721;41.740;-88.000;2023-01-19T08:39:31;9;7;
45990;PMS5003;31721;41.740;-88.000;2023-01-19T08:41:59;6;6;
45990;PMS5003;31721;41.740;-88.000;2023-01-19T08:44:26;9;9;
45990;PMS5003;31721;41.740;-88.000;2023-01-19T08:46:54;9;6;
45990;PMS5003;31721;41.740;-88.000;2023-01-19T08:49:22;6;6;
45990;PMS5003;31721;41.740;-88.000;2023-01-19T08:51:49;6;4;
45990;PMS5003;31721;41.740;-88.000;2023-01-19T08:54:17;6;6;
45990;PMS5003;31721;41.740;-88.000;2023-01-19T08:56:45;8;7;
45990;PMS5003;31721;41.740;-88.000;2023-01-19T08:59:13;4;3;
45990;PMS5003;31721;41.740;-88.000;2023-01-19T09:01:40;3;3;
45990;PMS5003;31721;41.740;-88.000;2023-01-19T09:04:08;6;6;
45990;PMS5003;31721;41.740;-88.000;2023-01-19T09:06:35;7;6;
45990;PMS5003;31721;41.740;-88.000;2023-01-19T09:09:03;7;6;
45990;PMS5003;31721;41.740;-88.000;2023-01-19T09:11:30;6;6;
45990;PMS5003;31721;41.740;-88.000;2023-01-19T09:13:58;4;4;
45990;PMS5003;31721;41.740;-88.000;2023-01-19T09:16:26;7;7;
45990;PMS5003;31721;41.740;-88.000;2023-01-19T09:18:53;2;2;
45990;PMS5003;31721;41.740;-88.000;2023-01-19T09:21:21;3;3;
45990;PMS5003;31721;41.740;-88.000;2023-01-19T09:23:48;4;4;
45990;PMS5003;31721;41.740;-88.000;2023-01-19T09:26:16;8;8;
45990;PMS5003;31721;41.740;-88.000;2023-01-19T09:28:43;6;6;
45990;PMS5003;31721;41.740;-88.000;2023-01-19T09:31:11;4;3;
45990;PMS5003;31721;41.740;-88.000;2023-01-19T09:33:39;3;3;
45990;PMS5003;31721;41.740;-88.000;2023-01-19T09:36:06;7;4;
45990;PMS5003;31721;41.740;-88.000;2023-01-19T09:38:35;6;6;
45990;PMS5003;31721;41.740;-88.000;2023-01-19T09:41:08;4;3;
45990;PMS5003;31721;41.740;-88.000;2023-01-19T09:43:43;3;3;
45990;PMS5003;31721;41.740;-88.000;2023-01-19T09:46:15;4;3;
45990;PMS5003;31721;41.740;-88.000;2023-01-19T09:48:48;9;4;
45990;PMS5003;31721;41.740;-88.000;2023-01-19T09:51:18;9;7;
45990;PMS5003;31721;41.740;-88.000;2023-01-19T09:54:15;3;3;
45990;PMS5003;31721;41.740;-88.000;2023-01-19T09:56:45;4;3;
45990;PMS5003;31721;41.740;-88.000;2023-01-19T09:59:18;4;4;
45990;PMS5003;31721;41.740;-88.000;2023-01-19T10:01:52;6;4;
45990;PMS5003;31721;41.740;-88.000;2023-01-19T10:05:33;6;4;
45990;PMS5003;31721;41.740;-88.000;2023-01-19T10:08:11;8;7;
45990;PMS5003;31721;41.740;-88.000;2023-01-19T10:10:47;6;3;
45990;PMS5003;31721;41.740;-88.000;2023-01-19T10:13:22;6;6;
45990;PMS5003;31721;41.740;-88.000;2023-01-19T10:15:58;7;6;
45990;PMS5003;31721;41.740;-88.000;2023-01-19T10:18:38;8;7;
45990;PMS5003;31721;41.740;-88.000;2023-01-19T10:21:10;4;4;
45990;PMS5003;31721;41.740;-88.000;2023-01-19T10:23:45;6;3;
45990;PMS5003;31721;41.740;-88.000;2023-01-19T10:26:18;4;4;
45990;PMS5003;31721;41.740;-88.000;2023-01-19T10:28:50;4;3;
45990;PMS5003;31721;41.740;-88.000;2023-01-19T10:31:21;6;6;
45990;PMS5003;31721;41.740;-88.000;2023-01-19T10:33:50;6;6;
45990;PMS5003;31721;41.740;-88.000;2023-01-19T10:36:20;4;4;
45990;PMS5003;31721;41.740;-88.000;2023-01-19T10:38:52;6;4;
45990;PMS5003;31721;41.740;-88.000;2023-01-19T10:41:21;4;3;
45990;PMS5003;31721;41.740;-88.000;2023-01-19T10:43:58;4;3;
45990;PMS5003;31721;41.740;-88.000;2023-01-19T10:46:30;7;7;
45990;PMS5003;31721;41.740;-88.000;2023-01-19T10:49:02;4;4;
45990;PMS5003;31721;41.740;-88.000;2023-01-19T10:51:31;8;6;
45990;PMS5003;31721;41.740;-88.000;2023-01-19T10:53:59;4;4;
45990;PMS5003;31721;41.740;-88.000;2023-01-19T10:56:30;11;9;
45990;PMS5003;31721;41.740;-88.000;2023-01-19T10:59:01;6;6;
45990;PMS5003;31721;41.740;-88.000;2023-01-19T11:01:31;7;4;
45990;PMS5003;31721;41.740;-88.000;2023-01-19T11:04:00;7;7;
45990;PMS5003;31721;41.740;-88.000;2023-01-19T11:06:44;7;4;
45990;PMS5003;31721;41.740;-88.000;2023-01-19T11:09:14;6;4;
45990;PMS5003;31721;41.740;-88.000;2023-01-19T11:11:46;9;7;
45990;PMS5003;31721;41.740;-88.000;2023-01-19T11:14:17;8;7;
45990;PMS5003;31721;41.740;-88.000;2023-01-19T11:16:47;9;7;
45990;PMS5003;31721;41.740;-88.000;2023-01-19T11:19:20;8;7;
45990;PMS5003;31721;41.740;-88.000;2023-01-19T11:21:51;6;6;
45990;PMS5003;31721;41.740;-88.000;2023-01-19T11:24:35;8;6;
45990;PMS5003;31721;41.740;-88.000;2023-01-19T11:27:04;13;8;
45990;PMS5003;31721;41.740;-88.000;2023-01-19T11:29:32;6;4;
45990;PMS5003;31721;41.740;-88.000;2023-01-19T11:32:09;11;8;
45990;PMS5003;31721;41.740;-88.000;2023-01-19T11:34:43;11;8;
45990;PMS5003;31721;41.740;-88.000;2023-01-19T11:37:24;12;12;
45990;PMS5003;31721;41.740;-88.000;2023-01-19T11:39:55;6;6;
45990;PMS5003;31721;41.740;-88.000;2023-01-19T11:42:25;21;17;
45990;PMS5003;31721;41.740;-88.000;2023-01-19T11:44:59;12;9;
45990;PMS5003;31721;41.740;-88.000;2023-01-19T11:47:32;9;9;
45990;PMS5003;31721;41.740;-88.000;2023-01-19T11:50:05;13;12;
45990;PMS5003;31721;41.740;-88.000;2023-01-19T11:52:41;13;8;
45990;PMS5003;31721;41.740;-88.000;2023-01-19T11:55:13;7;7;
45990;PMS5003;31721;41.740;-88.000;2023-01-19T11:57:46;12;11;
45990;PMS5003;31721;41.740;-88.000;2023-01-19T12:00:23;18;9;
45990;PMS5003;31721;41.740;-88.000;2023-01-19T12:02:54;7;7;
45990;PMS5003;31721;41.740;-88.000;2023-01-19T12:05:28;17;16;
45990;PMS5003;31721;41.740;-88.000;2023-01-19T12:07:59;11;9;
45990;PMS5003;31721;41.740;-88.000;2023-01-19T12:10:33;11;9;
45990;PMS5003;31721;41.740;-88.000;2023-01-19T12:13:05;18;16;
45990;PMS5003;31721;41.740;-88.000;2023-01-19T12:15:44;12;8;
45990;PMS5003;31721;41.740;-88.000;2023-01-19T12:18:15;13;11;
45990;PMS5003;31721;41.740;-88.000;2023-01-19T12:20:47;18;13;
45990;PMS5003;31721;41.740;-88.000;2023-01-19T12:23:20;9;8;
45990;PMS5003;31721;41.740;-88.000;2023-01-19T12:25:58;13;11;
45990;PMS5003;31721;41.740;-88.000;2023-01-19T12:28:35;12;9;
45990;PMS5003;31721;41.740;-88.000;2023-01-19T12:31:06;9;9;
45990;PMS5003;31721;41.740;-88.000;2023-01-19T12:33:35;12;11;
45990;PMS5003;31721;41.740;-88.000;2023-01-19T12:36:05;9;8;
45990;PMS5003;31721;41.740;-88.000;2023-01-19T12:38:39;12;8;
45990;PMS5003;31721;41.740;-88.000;2023-01-19T12:41:16;9;7;
45990;PMS5003;31721;41.740;-88.000;2023-01-19T12:43:47;6;3;
45990;PMS5003;31721;41.740;-88.000;2023-01-19T12:46:41;11;7;
45990;PMS5003;31721;41.740;-88.000;2023-01-19T12:49:13;6;6;
45990;PMS5003;31721;41.740;-88.000;2023-01-19T12:51:52;6;5;
45990;PMS5003;31721;41.740;-88.000;2023-01-19T12:54:36;6;5;
45990;PMS5003;31721;41.740;-88.000;2023-01-19T12:57:07;3;3;
45990;PMS5003;31721;41.740;-88.000;2023-01-19T12:59:43;5;5;
45990;PMS5003;31721;41.740;-88.000;2023-01-19T13:02:44;7;6;
45990;PMS5003;31721;41.740;-88.000;2023-01-19T13:05:16;2;2;
45990;PMS5003;31721;41.740;-88.000;2023-01-19T13:08:22;2;2;
45990;PMS5003;31721;41.740;-88.000;2023-01-19T13:10:53;3;2;
45990;PMS5003;31721;41.740;-88.000;2023-01-19T13:13:45;3;3;
45990;PMS5003;31721;41.740;-88.000;2023-01-19T13:17:20;5;5;
45990;PMS5003;31721;41.740;-88.000;2023-01-19T13:19:54;8;3;
45990;PMS5003;31721;41.740;-88.000;2023-01-19T13:23:50;5;5;
45990;PMS5003;31721;41.740;-88.000;2023-01-19T13:26:19;5;3;
45990;PMS5003;31721;41.740;-88.000;2023-01-19T13:28:49;6;6;
45990;PMS5003;31721;41.740;-88.000;2023-01-19T13:31:20;6;6;
45990;PMS5003;31721;41.740;-88.000;2023-01-19T13:33:51;8;5;
45990;PMS5003;31721;41.740;-88.000;2023-01-19T13:36:22;12;12;
45990;PMS5003;31721;41.740;-88.000;2023-01-19T13:38:54;10;3;
45990;PMS5003;31721;41.740;-88.000;2023-01-19T13:41:24;9;8;
45990;PMS5003;31721;41.740;-88.000;2023-01-19T13:43:57;4;4;
45990;PMS5003;31721;41.740;-88.000;2023-01-19T13:46:27;5;3;
45990;PMS5003;31721;41.740;-88.000;2023-01-19T13:48:57;5;5;
45990;PMS5003;31721;41.740;-88.000;2023-01-19T13:51:28;4;4;
45990;PMS5003;31721;41.740;-88.000;2023-01-19T13:53:57;3;3;
45990;PMS5003;31721;41.740;-88.000;2023-01-19T13:56:26;6;3;
45990;PMS5003;31721;41.740;-88.000;2023-01-19T13:58:57;7;6;
45990;PMS5003;31721;41.740;-88.000;2023-01-19T14:01:26;12;6;
45990;PMS5003;31721;41.740;-88.000;2023-01-19T14:03:54;8;6;
45990;PMS5003;31721;41.740;-88.000;2023-01-19T14:06:27;5;5;
45990;PMS5003;31721;41.740;-88.000;2023-01-19T14:09:08;3;3;
45990;PMS5003;31721;41.740;-88.000;2023-01-19T14:11:41;6;5;
45990;PMS5003;31721;41.740;-88.000;2023-01-19T14:14:26;7;6;
45990;PMS5003;31721;41.740;-88.000;2023-01-19T14:16:54;10;7;
45990;PMS5003;31721;41.740;-88.000;2023-01-19T14:19:22;5;5;
45990;PMS5003;31721;41.740;-88.000;2023-01-19T14:21:59;6;6;
45990;PMS5003;31721;41.740;-88.000;2023-01-19T14:24:28;8;7;
45990;PMS5003;31721;41.740;-88.000;2023-01-19T14:27:24;5;5;
45990;PMS5003;31721;41.740;-88.000;2023-01-19T14:29:52;6;6;
45990;PMS5003;31721;41.740;-88.000;2023-01-19T14:32:21;5;5;
45990;PMS5003;31721;41.740;-88.000;2023-01-19T14:34:50;6;6;
45990;PMS5003;31721;41.740;-88.000;2023-01-19T14:37:44;5;5;
45990;PMS5003;31721;41.740;-88.000;2023-01-19T14:40:15;7;5;
45990;PMS5003;31721;41.740;-88.000;2023-01-19T14:42:47;7;6;
45990;PMS5003;31721;41.740;-88.000;2023-01-19T14:45:19;6;6;
45990;PMS5003;31721;41.740;-88.000;2023-01-19T14:47:53;6;6;
45990;PMS5003;31721;41.740;-88.000;2023-01-19T14:50:23;11;10;
45990;PMS5003;31721;41.740;-88.000;2023-01-19T14:52:53;11;6;
45990;PMS5003;31721;41.740;-88.000;2023-01-19T14:55:27;7;6;
45990;PMS5003;31721;41.740;-88.000;2023-01-19T14:58:00;6;6;
45990;PMS5003;31721;41.740;-88.000;2023-01-19T15:00:34;5;5;
45990;PMS5003;31721;41.740;-88.000;2023-01-19T15:03:02;8;7;
45990;PMS5003;31721;41.740;-88.000;2023-01-19T15:05:30;6;5;
45990;PMS5003;31721;41.740;-88.000;2023-01-19T15:07:59;6;6;
45990;PMS5003;31721;41.740;-88.000;2023-01-19T15:10:29;6;5;
45990;PMS5003;31721;41.740;-88.000;2023-01-19T15:12:57;6;5;
45990;PMS5003;31721;41.740;-88.000;2023-01-19T15:15:28;4;4;
45990;PMS5003;31721;41.740;-88.000;2023-01-19T15:17:57;6;3;
45990;PMS5003;31721;41.740;-88.000;2023-01-19T15:20:25;6;4;
45990;PMS5003;31721;41.740;-88.000;2023-01-19T15:22:53;7;6;
45990;PMS5003;31721;41.740;-88.000;2023-01-19T15:25:22;6;6;
45990;PMS5003;31721;41.740;-88.000;2023-01-19T15:27:50;6;6;
45990;PMS5003;31721;41.740;-88.000;2023-01-19T15:30:19;11;8;
45990;PMS5003;31721;41.740;-88.000;2023-01-19T15:32:49;4;4;
45990;PMS5003;31721;41.740;-88.000;2023-01-19T15:35:18;6;3;
45990;PMS5003;31721;41.740;-88.000;2023-01-19T15:37:47;11;7;
45990;PMS5003;31721;41.740;-88.000;2023-01-19T15:40:16;7;6;
45990;PMS5003;31721;41.740;-88.000;2023-01-19T15:42:45;9;8;
45990;PMS5003;31721;41.740;-88.000;2023-01-19T15:45:21;6;6;
45990;PMS5003;31721;41.740;-88.000;2023-01-19T15:47:59;12;8;
45990;PMS5003;31721;41.740;-88.000;2023-01-19T15:50:28;9;7;
45990;PMS5003;31721;41.740;-88.000;2023-01-19T15:52:57;12;9;
45990;PMS5003;31721;41.740;-88.000;2023-01-19T15:55:25;12;7;
45990;PMS5003;31721;41.740;-88.000;2023-01-19T15:57:53;9;6;
45990;PMS5003;31721;41.740;-88.000;2023-01-19T16:00:21;4;4;
45990;PMS5003;31721;41.740;-88.000;2023-01-19T16:02:49;8;7;
45990;PMS5003;31721;41.740;-88.000;2023-01-19T16:05:16;6;3;
45990;PMS5003;31721;41.740;-88.000;2023-01-19T16:07:45;11;7;
45990;PMS5003;31721;41.740;-88.000;2023-01-19T16:10:13;3;3;
45990;PMS5003;31721;41.740;-88.000;2023-01-19T16:12:41;6;4;
45990;PMS5003;31721;41.740;-88.000;2023-01-19T16:15:10;8;8;
45990;PMS5003;31721;41.740;-88.000;2023-01-19T16:17:38;6;6;
45990;PMS5003;31721;41.740;-88.000;2023-01-19T16:20:06;9;7;
45990;PMS5003;31721;41.740;-88.000;2023-01-19T16:22:35;11;4;
45990;PMS5003;31721;41.740;-88.000;2023-01-19T16:25:03;8;6;
45990;PMS5003;31721;41.740;-88.000;2023-01-19T16:27:31;11;8;
45990;PMS5003;31721;41.740;-88.000;2023-01-19T16:29:59;9;7;
45990;PMS5003;31721;41.740;-88.000;2023-01-19T16:32:27;7;4;